Skip Navigation Links Skip Navigation Links

Current Weather

Lansing Muni, Lansing, Ill.

For information only: do not use for flight planning or navigation.
Latest weather
Observation time Tuesday, December 1, 2020 8:15 AM CST
Local time Tuesday, December 1, 2020 8:27 AM CST
Flight conditions Marginal Visual Meteorological Conditions
Winds
Wind direction West-Northwest (300°)
Wind speed 7 mph
Visibility 10 mi.
Sky condition
Ceiling 2,500 ft. overcast
Cloud layer overcast 2,500 ft.
Temperature 27°F
Dewpoint 16°F
Altimeter 30.04 in.Hg
Derived measurements
Relative humidity 64%
Wind chill 19°F
Density altitude -1684 ft.
Remarks
Fully automated report.
Automated weather observing station with precipitation discriminator.
METAR KIGQ 011415Z AUTO 30006KT 10SM OVC025 M03/M09 A3004 RMK AO2 T10301089

Settings

Location code

InnerDrive.Weather 4.0.6770.0 Release CLR 4.0.30319.42000
Copyright ©2018 Inner Drive Technology. All rights reserved. Portions Copyright ©1986-2018 David Braverman.

Find weather

Site navigation


Skip Navigation Links

Place info

Page info

PayPal - The safer, easier way to pay online!

Return home.

Copyright ©2020 Inner Drive Technology. Purveyors of fine, hand-crafted computer software. Page printed 2020-12-01T14:27:51 UTC.